createdAt,value
2022-07-26T00:01:20.787Z,3.60
2022-07-26T00:09:47.803Z,3.47
2022-07-26T00:12:35.683Z,3.17
2022-07-26T00:15:29.300Z,2.70
2022-07-26T00:17:58.998Z,3.08
2022-07-26T00:24:15.864Z,3.25
2022-07-26T00:26:47.749Z,2.88
2022-07-26T00:29:25.272Z,3.00
2022-07-26T00:32:19.732Z,3.30
2022-07-26T00:37:56.944Z,2.50
2022-07-26T00:40:43.313Z,2.30
2022-07-26T00:43:18.587Z,1.95
2022-07-26T00:46:20.482Z,2.30
2022-07-26T00:55:37.150Z,2.28
2022-07-26T00:58:40.222Z,1.85
2022-07-26T01:09:03.593Z,2.38
2022-07-26T01:11:41.724Z,2.55
2022-07-26T01:20:26.479Z,2.45
2022-07-26T01:29:47.054Z,2.50
2022-07-26T01:32:27.223Z,2.10
2022-07-26T01:39:03.435Z,2.40
2022-07-26T01:48:16.429Z,2.25
2022-07-26T01:54:47.103Z,2.17
2022-07-26T01:57:37.343Z,2.28
2022-07-26T02:00:15.335Z,2.30
2022-07-26T02:02:59.934Z,1.92
2022-07-26T02:05:53.151Z,2.72
2022-07-26T02:08:22.777Z,2.30
2022-07-26T02:11:10.607Z,2.15
2022-07-26T02:17:35.800Z,2.25
2022-07-26T02:41:29.512Z,2.67
2022-07-26T05:38:54.106Z,0.77
2022-07-26T05:48:19.307Z,0.77
2022-07-26T06:06:15.250Z,0.70
2022-07-26T06:09:05.762Z,0.77
2022-07-26T06:14:57.367Z,0.77
2022-07-26T06:20:32.746Z,0.82
2022-07-26T06:24:19.458Z,0.85
2022-07-26T06:27:27.768Z,0.68
2022-07-26T06:30:09.981Z,0.80
2022-07-26T06:33:24.928Z,1.30
2022-07-26T06:36:02.573Z,1.17
2022-07-26T06:38:33.520Z,1.20
2022-07-26T06:41:02.409Z,0.85
2022-07-26T06:43:30.341Z,0.75
2022-07-26T06:46:18.855Z,0.90
2022-07-26T06:49:01.659Z,1.08
2022-07-26T06:51:48.513Z,0.90
2022-07-26T06:54:31.451Z,0.70
2022-07-26T06:57:07.631Z,1.00
2022-07-26T06:59:40.618Z,0.82
2022-07-26T07:02:22.212Z,1.00
2022-07-26T07:07:24.561Z,1.25
2022-07-26T07:10:03.829Z,0.77
2022-07-26T07:12:33.765Z,0.80
2022-07-26T07:15:41.656Z,0.82
2022-07-26T07:18:09.559Z,1.25
2022-07-26T07:20:41.700Z,0.65
2022-07-26T07:23:17.049Z,0.70
2022-07-26T07:25:57.409Z,1.27
2022-07-26T07:31:30.063Z,0.77
2022-07-26T07:34:25.449Z,1.17
2022-07-26T07:36:57.851Z,1.17
2022-07-26T07:40:07.031Z,0.80
2022-07-26T07:43:03.963Z,1.02
2022-07-26T07:45:50.081Z,1.42
2022-07-26T07:48:46.565Z,1.15
2022-07-26T07:51:24.824Z,1.27
2022-07-26T07:54:02.473Z,1.10
2022-07-26T07:59:51.811Z,1.48
2022-07-26T08:05:35.219Z,1.08
2022-07-26T08:11:33.948Z,1.30
2022-07-26T08:14:28.426Z,1.30
2022-07-26T08:17:09.751Z,1.10
2022-07-26T08:20:03.785Z,1.40
2022-07-26T08:23:10.918Z,0.85
2022-07-26T08:26:04.732Z,1.17
2022-07-26T08:29:09.820Z,1.40
2022-07-26T08:34:37.530Z,1.02
2022-07-26T08:37:18.037Z,1.33
2022-07-26T08:40:19.913Z,1.23
2022-07-26T08:43:17.076Z,0.80
2022-07-26T08:46:14.998Z,0.82
2022-07-26T08:52:05.483Z,1.35
2022-07-26T08:58:23.286Z,1.67
2022-07-26T09:01:08.816Z,2.70
2022-07-26T09:03:55.286Z,2.28
2022-07-26T09:07:16.134Z,2.00
2022-07-26T09:10:06.933Z,1.90
2022-07-26T09:13:03.397Z,2.17
2022-07-26T09:15:36.294Z,2.10
2022-07-26T09:18:38.825Z,2.03
2022-07-26T09:21:54.630Z,2.47
2022-07-26T09:25:24.839Z,1.95
2022-07-26T09:28:16.331Z,2.10
2022-07-26T09:30:58.398Z,2.33
2022-07-26T09:37:00.360Z,2.00
2022-07-26T09:42:29.476Z,2.17
2022-07-26T09:45:45.681Z,1.80
2022-07-26T09:51:40.784Z,2.25
2022-07-26T09:54:44.482Z,1.63
2022-07-26T10:00:59.031Z,1.80
2022-07-26T10:03:53.954Z,1.65
2022-07-26T10:06:33.635Z,1.30
2022-07-26T10:12:46.400Z,2.05
2022-07-26T10:15:41.742Z,1.75
2022-07-26T10:19:11.541Z,1.75
2022-07-26T10:21:51.669Z,1.50
2022-07-26T10:24:30.854Z,2.10
2022-07-26T10:27:00.943Z,1.05
2022-07-26T10:29:30.239Z,1.50
2022-07-26T10:32:26.924Z,1.33
2022-07-26T10:35:29.877Z,1.45
2022-07-26T10:38:07.448Z,0.90
2022-07-26T10:41:07.535Z,0.93
2022-07-26T10:43:42.916Z,0.98
2022-07-26T10:46:38.993Z,1.20
2022-07-26T10:49:27.634Z,1.13
2022-07-26T10:52:33.413Z,1.20
2022-07-26T10:55:12.148Z,1.30
2022-07-26T10:57:59.785Z,1.75
2022-07-26T11:00:44.519Z,1.30
2022-07-26T11:03:16.436Z,1.05
2022-07-26T11:05:54.897Z,1.27
2022-07-26T11:08:47.774Z,1.30
2022-07-26T11:11:29.107Z,1.20
2022-07-26T11:14:23.911Z,1.20
2022-07-26T11:17:01.796Z,1.30
2022-07-26T11:19:43.408Z,1.50
2022-07-26T11:22:13.046Z,1.10
2022-07-26T11:24:43.833Z,0.80
2022-07-26T11:27:12.232Z,1.00
2022-07-26T11:29:49.254Z,1.40
2022-07-26T11:32:26.194Z,1.02
2022-07-26T11:35:07.111Z,1.08
2022-07-26T11:37:36.959Z,1.17
2022-07-26T11:40:41.585Z,1.10
2022-07-26T11:43:36.020Z,1.25
2022-07-26T11:46:09.348Z,0.93
2022-07-26T11:48:48.470Z,1.10
2022-07-26T11:51:22.025Z,1.15
2022-07-26T11:54:05.048Z,1.00
2022-07-26T11:57:05.692Z,1.27
2022-07-26T11:59:37.013Z,0.97
2022-07-26T12:02:06.852Z,1.10
2022-07-26T12:04:39.863Z,1.10
2022-07-26T12:07:28.711Z,1.10
2022-07-26T12:10:09.555Z,1.20
2022-07-26T12:12:44.726Z,1.50
2022-07-26T12:15:22.108Z,0.93
2022-07-26T12:18:22.171Z,1.70
2022-07-26T12:21:14.385Z,1.13
2022-07-26T12:26:48.510Z,1.15
2022-07-26T12:29:37.098Z,0.73
2022-07-26T12:32:38.703Z,1.08
2022-07-26T12:35:25.614Z,1.40
2022-07-26T12:37:55.656Z,1.40
2022-07-26T12:40:31.709Z,1.03
2022-07-26T12:43:05.139Z,1.48
2022-07-26T12:45:46.823Z,1.17
2022-07-26T12:51:55.552Z,1.05
2022-07-26T13:00:41.537Z,1.10
2022-07-26T13:03:24.142Z,0.93
2022-07-26T13:06:39.623Z,0.80
2022-07-26T13:09:29.814Z,0.93
2022-07-26T13:12:11.968Z,1.25
2022-07-26T13:17:49.760Z,1.05
2022-07-26T13:24:01.265Z,1.10
2022-07-26T13:26:28.588Z,0.90
2022-07-26T13:29:04.279Z,0.80
2022-07-26T13:34:53.311Z,1.30
2022-07-26T13:37:55.603Z,1.30
2022-07-26T13:46:20.512Z,1.00
2022-07-26T13:49:00.738Z,0.95
2022-07-26T13:51:32.801Z,1.00
2022-07-26T13:54:03.673Z,0.70
2022-07-26T13:56:33.595Z,0.93
2022-07-26T13:59:05.870Z,1.00
2022-07-26T14:01:46.082Z,0.90
2022-07-26T14:04:34.727Z,0.70
2022-07-26T14:07:33.325Z,0.93
2022-07-26T14:10:07.684Z,1.02
2022-07-26T14:12:45.944Z,0.65
2022-07-26T14:15:23.014Z,1.05
2022-07-26T14:17:55.623Z,0.70
2022-07-26T14:20:26.364Z,0.70
2022-07-26T14:22:55.184Z,1.00
2022-07-26T14:25:30.405Z,1.17
2022-07-26T14:28:16.870Z,0.68
2022-07-26T14:30:49.217Z,0.80
2022-07-26T14:33:16.327Z,0.85
2022-07-26T14:35:46.016Z,0.75
2022-07-26T14:38:24.344Z,0.52
2022-07-26T14:40:57.960Z,0.80
2022-07-26T14:43:35.237Z,1.00
2022-07-26T14:46:04.745Z,0.85
2022-07-26T14:48:54.636Z,0.75
2022-07-26T14:51:36.818Z,0.60
2022-07-26T14:54:08.532Z,0.63
2022-07-26T14:56:55.278Z,0.75
2022-07-26T14:59:33.996Z,0.60
2022-07-26T15:02:06.343Z,0.80
2022-07-26T15:04:40.207Z,0.45
2022-07-26T15:07:30.187Z,0.73
2022-07-26T15:10:04.098Z,0.75
2022-07-26T15:12:39.792Z,0.50
2022-07-26T15:15:10.895Z,0.43
2022-07-26T15:17:46.656Z,0.85
2022-07-26T15:20:15.503Z,0.60
2022-07-26T15:22:46.375Z,0.57
2022-07-26T15:25:19.438Z,1.10
2022-07-26T15:27:46.192Z,0.65
2022-07-26T15:30:16.243Z,0.60
2022-07-26T15:32:44.635Z,0.90
2022-07-26T15:35:14.381Z,0.70
2022-07-26T15:37:42.377Z,1.00
2022-07-26T15:40:10.746Z,0.50
2022-07-26T15:42:44.154Z,1.05
2022-07-26T17:45:01.464Z,0.52
2022-07-26T17:47:29.038Z,0.60
2022-07-26T18:01:21.024Z,0.70
2022-07-26T19:08:41.530Z,2.03
2022-07-26T19:25:00.314Z,0.90
2022-07-26T19:37:47.453Z,0.95
2022-07-26T19:40:27.973Z,1.08
2022-07-26T19:56:16.807Z,0.93
2022-07-26T19:59:23.985Z,1.17
2022-07-26T20:02:12.582Z,1.30
2022-07-26T20:05:22.598Z,0.95
2022-07-26T20:08:12.619Z,0.80
2022-07-26T20:11:10.381Z,0.85
2022-07-26T20:23:24.617Z,1.00
2022-07-26T20:35:19.092Z,0.77
2022-07-26T20:41:37.306Z,1.00
2022-07-26T20:44:09.565Z,0.63
2022-07-26T20:50:04.373Z,0.93
2022-07-26T20:52:40.789Z,0.93
2022-07-26T20:55:15.613Z,0.90
2022-07-26T21:01:02.855Z,0.70
2022-07-26T21:03:52.871Z,1.00
2022-07-26T21:13:55.274Z,1.25
2022-07-26T21:16:55.857Z,0.70
2022-07-26T21:23:17.753Z,0.90
2022-07-26T21:29:13.472Z,0.90
2022-07-26T21:31:57.482Z,0.82
2022-07-26T21:34:57.520Z,1.08
2022-07-26T21:40:58.107Z,1.23
2022-07-26T21:43:24.850Z,0.80
2022-07-26T21:49:11.500Z,0.80
2022-07-26T21:52:24.758Z,0.80
2022-07-26T21:55:30.493Z,0.93
2022-07-26T21:58:12.229Z,0.90
2022-07-26T22:00:47.933Z,0.80
2022-07-26T22:03:45.136Z,0.80
2022-07-26T22:06:21.810Z,0.88
2022-07-26T22:09:05.068Z,1.00
2022-07-26T22:11:45.080Z,0.68
2022-07-26T22:14:19.761Z,0.77
2022-07-26T22:16:52.128Z,1.17
2022-07-26T22:19:33.097Z,1.02
2022-07-26T22:28:11.757Z,0.90
2022-07-26T22:34:17.851Z,1.15
2022-07-26T22:37:01.461Z,1.40
2022-07-26T22:40:04.123Z,1.40
2022-07-26T22:43:09.216Z,1.20
2022-07-26T22:45:50.202Z,0.98
2022-07-26T22:48:47.670Z,1.30
2022-07-26T22:51:25.894Z,1.25
2022-07-26T22:54:13.661Z,1.20
2022-07-26T22:56:46.275Z,1.80
2022-07-26T23:00:08.738Z,1.35
2022-07-26T23:02:35.532Z,1.25
2022-07-26T23:11:48.527Z,1.63
2022-07-26T23:14:27.724Z,1.70
2022-07-26T23:17:38.194Z,1.45
2022-07-26T23:20:41.161Z,1.00
2022-07-26T23:30:22.410Z,0.80
2022-07-26T23:51:58.463Z,1.15
